Time;durP1;ratioP1;P1;durP2;ratioP2;P2;SDS_P1;SDS_P2;PMS_P1;PMS_P2;Temp;Humidity;BMP_temperature;BMP_pressure;BME280_temperature;BME280_humidity;BME280_pressure;Samples;Min_cycle;Max_cycle;Signal;HPM_P1;HPM_P2
2023/02/24 00:01:01;;;;;;;;;;;9.00;99.90;;;;;;5013532;28;19949;-71
2023/02/24 00:03:27;;;;;;;;;;;9.00;99.90;;;;;;5012307;28;20130;-71
2023/02/24 00:05:53;;;;;;;;;;;9.00;99.90;;;;;;5010192;28;19916;-71
2023/02/24 00:08:18;;;;;;;;;;;9.00;99.90;;;;;;5012952;28;19917;-71
2023/02/24 00:10:44;;;;;;;;;;;9.00;99.90;;;;;;5011157;28;21565;-71
2023/02/24 00:13:10;;;;;;;;;;;9.10;99.90;;;;;;5008826;28;19914;-71
2023/02/24 00:15:36;;;;;;;;;;;9.10;99.90;;;;;;4997051;28;19917;-71
2023/02/24 00:18:05;;;;;;;;;;;9.10;99.90;;;;;;4993897;28;20283;-71
2023/02/24 00:20:32;;;;;;;;;;;9.10;99.90;;;;;;4996148;28;19996;-71
2023/02/24 00:22:59;;;;;;;;;;;9.00;99.90;;;;;;4998366;28;19920;-71
2023/02/24 00:25:25;;;;;;;;;;;9.10;99.90;;;;;;4994607;28;19924;-70
2023/02/24 00:27:52;;;;;;;;;;;9.20;99.90;;;;;;4996371;28;20279;-71
2023/02/24 00:30:20;;;;;;;;;;;9.10;99.90;;;;;;4999796;28;19930;-71
2023/02/24 00:32:45;;;;;;;;;;;9.20;99.90;;;;;;4997108;28;20413;-71
2023/02/24 00:35:14;;;;;;;;;;;9.10;99.90;;;;;;4999165;28;19957;-71
2023/02/24 00:37:40;;;;;;;;;;;9.00;99.90;;;;;;4998661;28;20535;-71
2023/02/24 00:40:10;;;;;;;;;;;8.90;99.90;;;;;;4994090;28;20027;-71
2023/02/24 00:42:36;;;;;;;;;;;8.90;99.90;;;;;;4996892;28;19924;-71
2023/02/24 00:45:06;;;;;;;;;;;8.80;99.90;;;;;;4998431;28;19917;-71
2023/02/24 00:47:37;;;;;;;;;;;8.90;99.90;;;;;;4997224;28;19959;-71
2023/02/24 00:50:04;;;;;;;;;;;8.90;99.90;;;;;;4995467;28;19914;-71
2023/02/24 00:52:29;;;;;;;;;;;8.90;99.90;;;;;;4997405;28;19925;-71
2023/02/24 00:54:57;;;;;;;;;;;8.90;99.90;;;;;;4992943;28;19983;-71
2023/02/24 00:57:23;;;;;;;;;;;8.90;99.90;;;;;;4998774;28;19924;-71
2023/02/24 00:59:50;;;;;;;;;;;8.90;99.90;;;;;;4995239;28;19914;-71
2023/02/24 01:02:16;;;;;;;;;;;8.80;99.90;;;;;;4999111;28;20363;-71
2023/02/24 01:04:43;;;;;;;;;;;8.80;99.90;;;;;;5000929;28;19924;-71
2023/02/24 01:07:09;;;;;;;;;;;8.90;99.90;;;;;;5002410;28;20425;-71
2023/02/24 01:09:36;;;;;;;;;;;9.00;99.90;;;;;;4994533;28;19921;-71
2023/02/24 01:12:37;;;;;;;;;;;9.00;99.90;;;;;;4998546;28;19913;-71
2023/02/24 01:15:03;;;;;;;;;;;8.90;99.90;;;;;;4996490;28;19960;-71
2023/02/24 01:17:29;;;;;;;;;;;8.80;99.90;;;;;;5000086;28;19957;-71
2023/02/24 01:19:59;;;;;;;;;;;8.70;99.90;;;;;;4999685;28;19960;-71
2023/02/24 01:22:25;;;;;;;;;;;8.70;99.90;;;;;;5002316;28;19960;-71
2023/02/24 01:24:50;;;;;;;;;;;8.70;99.90;;;;;;4994569;28;19914;-71
2023/02/24 01:27:17;;;;;;;;;;;8.70;99.90;;;;;;5001674;28;19913;-71
2023/02/24 01:29:43;;;;;;;;;;;8.70;99.90;;;;;;5000418;28;19932;-71
2023/02/24 01:32:12;;;;;;;;;;;8.70;99.90;;;;;;4997691;28;19918;-71
2023/02/24 01:34:39;;;;;;;;;;;8.70;99.90;;;;;;4997291;28;19921;-71
2023/02/24 01:37:05;;;;;;;;;;;8.70;99.90;;;;;;5002389;28;20002;-71
2023/02/24 01:39:31;;;;;;;;;;;8.60;99.90;;;;;;5003882;28;19920;-71
2023/02/24 01:42:00;;;;;;;;;;;8.70;99.90;;;;;;4995535;28;19921;-71
2023/02/24 01:44:31;;;;;;;;;;;8.70;99.90;;;;;;5012658;28;19914;-71
2023/02/24 01:46:57;;;;;;;;;;;8.70;99.90;;;;;;5013562;28;20040;-71
2023/02/24 01:49:28;;;;;;;;;;;8.70;99.90;;;;;;5014217;28;19952;-71
2023/02/24 01:52:05;;;;;;;;;;;8.60;99.90;;;;;;5015142;28;19916;-71
2023/02/24 01:54:33;;;;;;;;;;;8.60;99.90;;;;;;5014614;28;19949;-71
2023/02/24 01:57:00;;;;;;;;;;;8.60;99.90;;;;;;5014299;28;20359;-71
2023/02/24 01:59:27;;;;;;;;;;;8.50;99.90;;;;;;5014985;28;19925;-71
2023/02/24 02:01:57;;;;;;;;;;;8.50;99.90;;;;;;5014644;28;19932;-71
2023/02/24 02:04:44;;;;;;;;;;;8.50;99.90;;;;;;5013511;28;19914;-71
2023/02/24 02:07:15;;;;;;;;;;;8.60;99.90;;;;;;5014386;28;19941;-71
2023/02/24 02:09:41;;;;;;;;;;;8.60;99.90;;;;;;5014672;28;20298;-71
2023/02/24 02:12:08;;;;;;;;;;;8.60;99.90;;;;;;5007427;28;20333;-71
2023/02/24 02:14:35;;;;;;;;;;;8.50;99.90;;;;;;5013832;28;19914;-71
2023/02/24 02:17:01;;;;;;;;;;;8.50;99.90;;;;;;4998494;28;19929;-71
2023/02/24 02:19:30;;;;;;;;;;;8.50;99.90;;;;;;4995210;28;19917;-71
2023/02/24 02:22:16;;;;;;;;;;;8.40;99.90;;;;;;4995149;28;19913;-71
2023/02/24 02:24:47;;;;;;;;;;;8.40;99.90;;;;;;4994313;28;19933;-71
2023/02/24 02:27:36;;;;;;;;;;;8.50;99.90;;;;;;4996990;28;19928;-71
2023/02/24 02:30:12;;;;;;;;;;;8.50;99.90;;;;;;4987863;28;20291;-71
2023/02/24 02:32:38;;;;;;;;;;;8.50;99.90;;;;;;4996491;28;19933;-71
2023/02/24 02:35:11;;;;;;;;;;;8.50;99.90;;;;;;4998917;28;19976;-71
2023/02/24 02:37:45;;;;;;;;;;;8.40;99.90;;;;;;4996699;28;19924;-71
2023/02/24 02:40:17;;;;;;;;;;;8.40;99.90;;;;;;4993864;28;19980;-71
2023/02/24 02:42:45;;;;;;;;;;;8.30;99.90;;;;;;4993018;28;19920;-71
2023/02/24 02:45:23;;;;;;;;;;;8.30;99.90;;;;;;4995869;28;20405;-71
2023/02/24 02:48:05;;;;;;;;;;;8.30;99.90;;;;;;4996955;28;22066;-71
2023/02/24 02:50:35;;;;;;;;;;;8.40;99.90;;;;;;4994193;28;20505;-71
2023/02/24 02:53:05;;;;;;;;;;;8.40;99.90;;;;;;4993175;28;19922;-71
2023/02/24 02:55:40;;;;;;;;;;;8.30;99.90;;;;;;5013306;28;19967;-71
2023/02/24 02:58:09;;;;;;;;;;;8.30;99.90;;;;;;4995744;28;20005;-71
2023/02/24 03:00:57;;;;;;;;;;;8.40;99.90;;;;;;5004095;28;19913;-71
2023/02/24 03:03:26;;;;;;;;;;;8.40;99.90;;;;;;4995128;28;20493;-71
2023/02/24 03:05:55;;;;;;;;;;;8.40;99.90;;;;;;4994359;28;20255;-71
2023/02/24 03:08:24;;;;;;;;;;;8.30;99.90;;;;;;4998216;28;19984;-70
2023/02/24 03:10:52;;;;;;;;;;;8.30;99.90;;;;;;4995874;28;19977;-71
2023/02/24 03:13:21;;;;;;;;;;;8.30;99.90;;;;;;4995802;28;19921;-71
2023/02/24 03:15:49;;;;;;;;;;;8.30;99.90;;;;;;4994306;28;19917;-71
2023/02/24 03:18:18;;;;;;;;;;;8.20;99.90;;;;;;5008289;28;19924;-71
2023/02/24 03:20:47;;;;;;;;;;;8.20;99.90;;;;;;4999099;28;19961;-71
2023/02/24 03:23:15;;;;;;;;;;;8.20;99.90;;;;;;4993218;28;19914;-70
2023/02/24 03:25:45;;;;;;;;;;;8.30;99.90;;;;;;4993909;28;19921;-71
2023/02/24 03:28:21;;;;;;;;;;;8.30;99.90;;;;;;4995347;28;19914;-70
2023/02/24 03:30:56;;;;;;;;;;;8.20;99.90;;;;;;4997891;28;19924;-70
2023/02/24 03:33:28;;;;;;;;;;;8.20;99.90;;;;;;4997589;28;19914;-71
2023/02/24 03:36:00;;;;;;;;;;;8.20;99.90;;;;;;5001392;28;19925;-71
2023/02/24 03:38:29;;;;;;;;;;;8.50;99.90;;;;;;4996872;28;19917;-72
2023/02/24 03:40:56;;;;;;;;;;;8.50;99.90;;;;;;4997378;28;19922;-71
2023/02/24 03:43:26;;;;;;;;;;;8.50;99.90;;;;;;4993285;28;19914;-71
2023/02/24 03:45:53;;;;;;;;;;;8.50;99.90;;;;;;5004169;28;20047;-71
2023/02/24 03:48:19;;;;;;;;;;;8.40;99.90;;;;;;5013698;28;19916;-71
2023/02/24 03:50:45;;;;;;;;;;;8.50;99.90;;;;;;5013843;28;19910;-71
2023/02/24 03:53:21;;;;;;;;;;;8.50;99.90;;;;;;5013051;28;19909;-71
2023/02/24 03:56:00;;;;;;;;;;;8.40;99.90;;;;;;5006914;28;19992;-71
2023/02/24 03:58:26;;;;;;;;;;;8.50;99.90;;;;;;5012810;28;19919;-71
2023/02/24 04:01:04;;;;;;;;;;;8.40;99.90;;;;;;5013277;28;20517;-71
2023/02/24 04:03:37;;;;;;;;;;;8.40;99.90;;;;;;5014956;28;19964;-71
2023/02/24 04:06:18;;;;;;;;;;;8.40;99.90;;;;;;5016748;28;20016;-71
2023/02/24 04:08:52;;;;;;;;;;;8.40;99.90;;;;;;5017268;28;19910;-71
2023/02/24 04:11:34;;;;;;;;;;;8.40;99.90;;;;;;5016749;28;19920;-71
2023/02/24 04:14:05;;;;;;;;;;;8.30;99.90;;;;;;5011471;28;19913;-71
2023/02/24 04:16:49;;;;;;;;;;;8.30;99.90;;;;;;5007550;28;20020;-71
2023/02/24 04:19:17;;;;;;;;;;;8.30;99.90;;;;;;4999912;28;19936;-71
2023/02/24 04:21:47;;;;;;;;;;;8.20;99.90;;;;;;5001120;28;19932;-71
2023/02/24 04:24:14;;;;;;;;;;;8.30;99.90;;;;;;4998224;28;20020;-71
2023/02/24 04:26:44;;;;;;;;;;;8.50;99.90;;;;;;4996175;28;19924;-71
2023/02/24 04:29:16;;;;;;;;;;;8.50;99.90;;;;;;4999926;28;20171;-71
2023/02/24 04:32:02;;;;;;;;;;;8.50;99.90;;;;;;4998059;28;19914;-71
2023/02/24 04:34:31;;;;;;;;;;;8.50;99.90;;;;;;4997878;28;19918;-71
2023/02/24 04:36:58;;;;;;;;;;;8.40;99.90;;;;;;4996644;28;19918;-71
2023/02/24 04:39:24;;;;;;;;;;;8.40;99.90;;;;;;4997957;28;20327;-71
2023/02/24 04:41:49;;;;;;;;;;;8.30;99.90;;;;;;5002078;28;20375;-71
2023/02/24 04:44:16;;;;;;;;;;;8.30;99.90;;;;;;4998305;28;19921;-71
2023/02/24 04:46:43;;;;;;;;;;;8.30;99.90;;;;;;4995347;28;19922;-71
2023/02/24 04:49:09;;;;;;;;;;;8.30;99.90;;;;;;4996925;28;19914;-71
2023/02/24 04:51:35;;;;;;;;;;;8.30;99.90;;;;;;4997532;28;19932;-71
2023/02/24 04:54:02;;;;;;;;;;;8.30;99.90;;;;;;5000095;28;20448;-71
2023/02/24 04:56:28;;;;;;;;;;;8.20;99.90;;;;;;5009331;28;19925;-71
2023/02/24 04:58:54;;;;;;;;;;;8.20;99.90;;;;;;4998531;28;19913;-70
2023/02/24 05:01:20;;;;;;;;;;;8.10;99.90;;;;;;4993729;28;20940;-70
2023/02/24 05:03:46;;;;;;;;;;;8.20;99.90;;;;;;4998896;28;20403;-71
2023/02/24 05:06:13;;;;;;;;;;;8.20;99.90;;;;;;5000399;28;19940;-71
2023/02/24 05:08:39;;;;;;;;;;;8.30;99.90;;;;;;5009022;28;19910;-71
2023/02/24 05:11:05;;;;;;;;;;;8.40;99.90;;;;;;4999378;28;20352;-70
2023/02/24 05:13:31;;;;;;;;;;;8.40;99.90;;;;;;5001231;28;20322;-70
2023/02/24 05:15:58;;;;;;;;;;;8.40;99.90;;;;;;5001075;28;20102;-70
2023/02/24 05:18:24;;;;;;;;;;;8.40;99.90;;;;;;4998723;28;20027;-71
2023/02/24 05:23:43;;;;;;;;;;;8.30;99.90;;;;;;4996544;28;19924;-70
2023/02/24 05:26:09;;;;;;;;;;;8.30;99.90;;;;;;4998628;28;20513;-70
2023/02/24 05:28:36;;;;;;;;;;;8.30;99.90;;;;;;5007052;28;19953;-71
2023/02/24 05:31:16;;;;;;;;;;;8.40;99.90;;;;;;5012501;28;19914;-70
2023/02/24 05:33:42;;;;;;;;;;;8.40;99.90;;;;;;5001763;28;19914;-70
2023/02/24 05:36:10;;;;;;;;;;;8.40;99.90;;;;;;4998862;28;19921;-70
2023/02/24 05:38:37;;;;;;;;;;;8.40;99.90;;;;;;4997378;28;20000;-71
2023/02/24 05:41:06;;;;;;;;;;;8.40;99.90;;;;;;4998358;28;19925;-70
2023/02/24 05:43:34;;;;;;;;;;;8.50;99.90;;;;;;4999926;28;19921;-70
2023/02/24 05:46:03;;;;;;;;;;;8.50;99.90;;;;;;5010371;28;19917;-70
2023/02/24 05:48:33;;;;;;;;;;;8.40;99.90;;;;;;5013102;28;19992;-70
2023/02/24 05:51:06;;;;;;;;;;;8.40;99.90;;;;;;5014508;28;20012;-70
2023/02/24 05:53:32;;;;;;;;;;;8.40;99.90;;;;;;4997620;28;20434;-70
2023/02/24 05:56:03;;;;;;;;;;;8.50;99.90;;;;;;5004273;28;19918;-70
2023/02/24 05:58:29;;;;;;;;;;;8.50;99.90;;;;;;5014756;28;19917;-70
2023/02/24 06:00:55;;;;;;;;;;;8.50;99.90;;;;;;5015050;28;19916;-70
2023/02/24 06:03:29;;;;;;;;;;;8.50;99.90;;;;;;4998887;28;19972;-70
2023/02/24 06:05:58;;;;;;;;;;;8.60;99.90;;;;;;4996679;28;19917;-70
2023/02/24 06:08:24;;;;;;;;;;;8.60;99.90;;;;;;4998639;28;19921;-70
2023/02/24 06:10:50;;;;;;;;;;;8.60;99.90;;;;;;4997512;28;19918;-70
2023/02/24 06:13:16;;;;;;;;;;;8.60;99.90;;;;;;4996959;28;20040;-70
2023/02/24 06:15:49;;;;;;;;;;;8.70;99.90;;;;;;4998027;28;19945;-70
2023/02/24 06:18:16;;;;;;;;;;;8.70;99.90;;;;;;4999842;28;19918;-70
2023/02/24 06:20:44;;;;;;;;;;;8.70;99.90;;;;;;4995910;28;20008;-70
2023/02/24 06:23:10;;;;;;;;;;;8.80;99.90;;;;;;4995723;28;20474;-70
2023/02/24 06:25:37;;;;;;;;;;;8.80;99.90;;;;;;4997195;28;20000;-70
2023/02/24 06:28:03;;;;;;;;;;;8.80;99.90;;;;;;4994846;28;19913;-70
2023/02/24 06:30:28;;;;;;;;;;;8.90;99.90;;;;;;4999406;28;20494;-70
2023/02/24 06:32:55;;;;;;;;;;;8.90;99.90;;;;;;4994046;28;19953;-70
2023/02/24 06:35:21;;;;;;;;;;;8.80;99.90;;;;;;4998713;28;19929;-70
2023/02/24 06:37:47;;;;;;;;;;;9.00;99.90;;;;;;4996830;28;19925;-70
2023/02/24 06:40:18;;;;;;;;;;;9.00;99.90;;;;;;4993999;28;19925;-70
2023/02/24 06:42:45;;;;;;;;;;;9.00;99.90;;;;;;4997631;28;19921;-70
2023/02/24 06:45:11;;;;;;;;;;;9.00;99.90;;;;;;4995856;28;19932;-70
2023/02/24 06:47:37;;;;;;;;;;;8.90;99.90;;;;;;4996142;28;20291;-70
2023/02/24 06:50:06;;;;;;;;;;;8.90;99.90;;;;;;4996748;28;20390;-70
2023/02/24 06:52:32;;;;;;;;;;;8.90;99.90;;;;;;4997327;28;19961;-70
2023/02/24 06:54:58;;;;;;;;;;;8.90;99.90;;;;;;4996470;28;19921;-70
2023/02/24 06:57:24;;;;;;;;;;;9.10;99.90;;;;;;4997503;28;19918;-70
2023/02/24 06:59:49;;;;;;;;;;;9.20;99.90;;;;;;4995649;28;20300;-70
2023/02/24 07:02:16;;;;;;;;;;;9.30;99.90;;;;;;4996240;28;20133;-70
2023/02/24 07:04:45;;;;;;;;;;;9.20;99.90;;;;;;4994635;28;19922;-70
2023/02/24 07:07:12;;;;;;;;;;;9.30;99.90;;;;;;4996332;28;19918;-70
2023/02/24 07:09:40;;;;;;;;;;;9.40;99.90;;;;;;4995748;28;19992;-70
2023/02/24 07:12:06;;;;;;;;;;;9.40;99.90;;;;;;4997501;28;19949;-70
2023/02/24 07:14:32;;;;;;;;;;;9.50;99.90;;;;;;5011217;28;19917;-70
2023/02/24 07:16:58;;;;;;;;;;;9.60;99.90;;;;;;4995498;28;19933;-70
2023/02/24 07:19:25;;;;;;;;;;;9.70;99.90;;;;;;4992810;28;19914;-70
2023/02/24 07:21:58;;;;;;;;;;;9.80;99.90;;;;;;4993554;28;20017;-70
2023/02/24 07:24:24;;;;;;;;;;;9.70;99.90;;;;;;4994208;28;19996;-70
2023/02/24 07:26:55;;;;;;;;;;;9.80;99.90;;;;;;4996397;28;20669;-70
2023/02/24 07:29:21;;;;;;;;;;;9.90;99.90;;;;;;5002793;28;19914;-71
2023/02/24 07:31:47;;;;;;;;;;;9.90;99.90;;;;;;4997611;28;19913;-70
2023/02/24 07:34:13;;;;;;;;;;;10.00;99.90;;;;;;4994895;28;19964;-70
2023/02/24 07:36:47;;;;;;;;;;;10.10;99.90;;;;;;4996877;28;20008;-70
2023/02/24 07:39:14;;;;;;;;;;;10.00;99.90;;;;;;4997923;28;19967;-70
2023/02/24 07:41:45;;;;;;;;;;;10.00;99.90;;;;;;4999050;28;19918;-70
2023/02/24 07:44:12;;;;;;;;;;;10.10;99.90;;;;;;5000906;28;19924;-70
2023/02/24 07:46:38;;;;;;;;;;;10.10;99.90;;;;;;5016067;28;19917;-71
2023/02/24 07:49:08;;;;;;;;;;;10.20;99.90;;;;;;5017014;28;19909;-70
2023/02/24 07:51:34;;;;;;;;;;;10.20;99.90;;;;;;5015231;28;20398;-70
2023/02/24 07:54:00;;;;;;;;;;;10.20;99.90;;;;;;5016922;28;20016;-70
2023/02/24 07:56:26;;;;;;;;;;;10.30;99.90;;;;;;5008655;28;19956;-70
2023/02/24 07:58:58;;;;;;;;;;;10.30;99.90;;;;;;5006486;28;19936;-70
2023/02/24 08:01:26;;;;;;;;;;;10.40;99.90;;;;;;5010686;28;19918;-70
2023/02/24 08:03:56;;;;;;;;;;;10.60;99.90;;;;;;5016090;28;19916;-71
2023/02/24 08:06:26;;;;;;;;;;;10.70;99.90;;;;;;5006880;28;20381;-71
2023/02/24 08:09:09;;;;;;;;;;;10.70;99.90;;;;;;5015213;28;19963;-71
2023/02/24 08:11:35;;;;;;;;;;;10.70;99.90;;;;;;5013810;28;19953;-70
2023/02/24 08:14:02;;;;;;;;;;;10.90;99.90;;;;;;5016012;28;19916;-67
2023/02/24 08:16:38;;;;;;;;;;;10.90;99.90;;;;;;4999315;28;19992;-69
2023/02/24 08:19:19;;;;;;;;;;;11.00;99.90;;;;;;5013988;28;19921;-70
2023/02/24 08:21:49;;;;;;;;;;;11.30;99.90;;;;;;5002756;28;19917;-70
2023/02/24 08:24:22;;;;;;;;;;;11.40;99.90;;;;;;4997685;28;20264;-70
2023/02/24 08:27:02;;;;;;;;;;;11.40;99.90;;;;;;4999375;28;20004;-70
2023/02/24 08:29:38;;;;;;;;;;;11.60;99.90;;;;;;4996397;28;19961;-70
2023/02/24 08:32:15;;;;;;;;;;;11.80;99.90;;;;;;5003044;28;20005;-69
2023/02/24 08:34:43;;;;;;;;;;;11.80;99.90;;;;;;4999633;28;19914;-70
2023/02/24 08:37:08;;;;;;;;;;;11.90;99.90;;;;;;4997930;28;20016;-70
2023/02/24 08:39:35;;;;;;;;;;;11.90;99.90;;;;;;5013207;28;20327;-70
2023/02/24 08:42:01;;;;;;;;;;;11.80;99.90;;;;;;4996694;28;19913;-70
2023/02/24 08:44:27;;;;;;;;;;;11.80;99.90;;;;;;4995778;28;19921;-70
2023/02/24 08:46:53;;;;;;;;;;;11.90;99.90;;;;;;5000987;28;20315;-71
2023/02/24 08:49:20;;;;;;;;;;;11.90;99.90;;;;;;4999059;28;19917;-71
2023/02/24 08:51:51;;;;;;;;;;;11.90;99.90;;;;;;4999246;28;19941;-70
2023/02/24 08:54:25;;;;;;;;;;;11.90;99.90;;;;;;4996003;28;19913;-70
2023/02/24 08:56:54;;;;;;;;;;;11.90;99.90;;;;;;4996304;28;20020;-71
2023/02/24 08:59:48;;;;;;;;;;;12.00;99.90;;;;;;4995752;28;20575;-70
2023/02/24 09:02:22;;;;;;;;;;;12.00;99.90;;;;;;4994992;28;20012;-70
2023/02/24 09:04:58;;;;;;;;;;;12.10;99.90;;;;;;4997124;28;19921;-69
2023/02/24 09:07:26;;;;;;;;;;;12.20;99.90;;;;;;5005121;28;19914;-71
2023/02/24 09:09:55;;;;;;;;;;;12.20;99.90;;;;;;5006691;28;19921;-71
2023/02/24 09:12:23;;;;;;;;;;;12.40;99.90;;;;;;4995515;28;20487;-69
2023/02/24 09:14:56;;;;;;;;;;;12.40;99.90;;;;;;4997460;28;19940;-70
2023/02/24 09:17:38;;;;;;;;;;;12.40;99.90;;;;;;5006641;28;20381;-70
2023/02/24 09:22:56;;;;;;;;;;;12.40;99.90;;;;;;5006048;28;19913;-69
2023/02/24 09:25:24;;;;;;;;;;;12.50;99.90;;;;;;5005560;28;19913;-70
2023/02/24 09:27:53;;;;;;;;;;;12.50;99.90;;;;;;5010557;28;19920;-69
2023/02/24 09:30:34;;;;;;;;;;;12.50;99.90;;;;;;5009757;28;19921;-69
2023/02/24 09:33:06;;;;;;;;;;;12.50;99.90;;;;;;5014408;28;19913;-68
2023/02/24 09:35:35;;;;;;;;;;;12.50;99.90;;;;;;5012475;28;19957;-69
2023/02/24 09:38:04;;;;;;;;;;;12.50;99.90;;;;;;5007893;28;19917;-68
2023/02/24 09:40:39;;;;;;;;;;;12.50;99.90;;;;;;5013694;28;19957;-69
2023/02/24 09:43:16;;;;;;;;;;;12.60;99.90;;;;;;5010260;28;19914;-69
2023/02/24 09:45:57;;;;;;;;;;;12.40;99.90;;;;;;5007824;28;19913;-70
2023/02/24 09:48:30;;;;;;;;;;;12.60;99.90;;;;;;5013604;28;20286;-70
2023/02/24 09:51:09;;;;;;;;;;;12.60;99.90;;;;;;5014634;28;20004;-70
2023/02/24 09:53:38;;;;;;;;;;;12.60;99.90;;;;;;5013643;28;19909;-70
2023/02/24 09:56:07;;;;;;;;;;;12.50;99.90;;;;;;5013851;28;19910;-68
2023/02/24 09:58:38;;;;;;;;;;;12.30;99.90;;;;;;5011876;28;19913;-68
2023/02/24 10:01:20;;;;;;;;;;;12.40;99.90;;;;;;5010377;28;19914;-71
2023/02/24 10:04:07;;;;;;;;;;;12.40;99.90;;;;;;5013900;28;19920;-65
2023/02/24 10:06:42;;;;;;;;;;;12.40;99.90;;;;;;5013323;28;20330;-65
2023/02/24 10:09:11;;;;;;;;;;;12.30;99.90;;;;;;5013874;28;19924;-70
2023/02/24 10:11:47;;;;;;;;;;;12.20;99.90;;;;;;5011922;28;19910;-70
2023/02/24 10:14:18;;;;;;;;;;;12.20;99.90;;;;;;5011596;28;19914;-70
2023/02/24 10:16:45;;;;;;;;;;;12.10;99.90;;;;;;5010986;28;19917;-69
2023/02/24 10:19:17;;;;;;;;;;;12.10;99.90;;;;;;5009796;28;19913;-69
2023/02/24 10:21:49;;;;;;;;;;;12.10;99.90;;;;;;5009852;28;20576;-69
2023/02/24 10:24:22;;;;;;;;;;;12.10;99.90;;;;;;5008954;28;19937;-70
2023/02/24 10:26:57;;;;;;;;;;;12.10;99.90;;;;;;5011758;28;19917;-69
2023/02/24 10:29:28;;;;;;;;;;;12.00;99.90;;;;;;5009526;28;19953;-69
2023/02/24 10:32:22;;;;;;;;;;;12.00;99.90;;;;;;5010561;28;19913;-69
2023/02/24 10:34:51;;;;;;;;;;;11.90;99.90;;;;;;5018887;28;19918;-69
2023/02/24 10:37:19;;;;;;;;;;;12.00;99.90;;;;;;5010863;28;20035;-69
2023/02/24 10:39:48;;;;;;;;;;;11.90;99.90;;;;;;5007206;28;19940;-69
2023/02/24 10:42:24;;;;;;;;;;;11.90;99.90;;;;;;5010243;28;19913;-69
2023/02/24 10:44:51;;;;;;;;;;;11.90;99.90;;;;;;5011191;28;19913;-69
2023/02/24 10:47:29;;;;;;;;;;;11.80;99.90;;;;;;5009810;28;19914;-69
2023/02/24 10:50:02;;;;;;;;;;;11.80;99.90;;;;;;5008991;28;19917;-69
2023/02/24 10:52:49;;;;;;;;;;;11.80;99.90;;;;;;5009991;28;19928;-69
2023/02/24 10:55:37;;;;;;;;;;;11.80;99.90;;;;;;5005325;28;19913;-69
2023/02/24 10:58:14;;;;;;;;;;;11.80;99.90;;;;;;4996145;28;19917;-69
2023/02/24 11:03:45;;;;;;;;;;;11.80;99.90;;;;;;5011074;28;19932;-69
2023/02/24 11:18:23;;;;;;;;;;;12.00;99.90;;;;;;5008186;28;19924;-69
2023/02/24 11:20:57;;;;;;;;;;;11.90;99.90;;;;;;5004937;28;20011;-69
2023/02/24 11:23:34;;;;;;;;;;;11.80;99.90;;;;;;5010933;28;19914;-69
2023/02/24 11:26:03;;;;;;;;;;;11.70;99.90;;;;;;5010913;28;19940;-70
2023/02/24 11:28:48;;;;;;;;;;;11.70;99.90;;;;;;5012085;28;19914;-69
2023/02/24 11:31:32;;;;;;;;;;;11.70;99.90;;;;;;5007972;28;19920;-69
2023/02/24 11:34:00;;;;;;;;;;;11.70;99.90;;;;;;5010145;28;19921;-69
2023/02/24 11:36:36;;;;;;;;;;;11.60;99.90;;;;;;5006410;28;19913;-68
2023/02/24 11:39:04;;;;;;;;;;;11.50;99.90;;;;;;5007957;28;19914;-70
2023/02/24 11:41:33;;;;;;;;;;;11.50;99.90;;;;;;5004393;28;19976;-69
2023/02/24 11:44:02;;;;;;;;;;;11.50;99.90;;;;;;5011587;28;20453;-69
2023/02/24 11:46:56;;;;;;;;;;;11.50;99.90;;;;;;5006745;28;19925;-69
2023/02/24 11:49:21;;;;;;;;;;;11.50;99.90;;;;;;5008855;28;20047;-69
2023/02/24 11:51:48;;;;;;;;;;;11.40;99.90;;;;;;5012147;28;19918;-69
2023/02/24 11:54:16;;;;;;;;;;;11.40;99.90;;;;;;5012067;28;19909;-69
2023/02/24 11:57:02;;;;;;;;;;;11.50;99.90;;;;;;5011578;28;20000;-69
2023/02/24 11:59:28;;;;;;;;;;;11.50;99.90;;;;;;5005374;28;20367;-69
2023/02/24 12:02:12;;;;;;;;;;;11.50;99.90;;;;;;5012283;28;19909;-69
2023/02/24 12:04:45;;;;;;;;;;;11.70;99.90;;;;;;5010420;28;20367;-69
2023/02/24 12:07:29;;;;;;;;;;;11.60;99.90;;;;;;5011642;28;20016;-69
2023/02/24 12:10:04;;;;;;;;;;;11.70;99.90;;;;;;5010256;28;19925;-69
2023/02/24 12:12:43;;;;;;;;;;;11.70;99.90;;;;;;5010663;28;19937;-69
2023/02/24 12:15:23;;;;;;;;;;;11.70;99.90;;;;;;5004122;28;19921;-69
2023/02/24 12:18:12;;;;;;;;;;;11.70;99.90;;;;;;5004797;28;19921;-69
2023/02/24 12:20:56;;;;;;;;;;;11.70;99.90;;;;;;5002554;28;19913;-69
2023/02/24 12:23:31;;;;;;;;;;;11.70;99.90;;;;;;5011381;28;19914;-69
2023/02/24 12:26:12;;;;;;;;;;;11.60;99.90;;;;;;5013267;28;19957;-68
2023/02/24 12:28:50;;;;;;;;;;;11.60;99.90;;;;;;5008323;28;19996;-69
2023/02/24 12:31:22;;;;;;;;;;;11.80;99.90;;;;;;5013128;28;19914;-69
2023/02/24 12:34:07;;;;;;;;;;;11.70;99.90;;;;;;5013944;28;20553;-69
2023/02/24 12:36:42;;;;;;;;;;;11.60;99.90;;;;;;5013932;28;19949;-69
2023/02/24 12:39:08;;;;;;;;;;;11.60;99.90;;;;;;5015154;28;19944;-69
2023/02/24 12:41:41;;;;;;;;;;;11.60;99.90;;;;;;5010299;28;19922;-69
2023/02/24 12:44:07;;;;;;;;;;;11.60;99.90;;;;;;5008433;28;19917;-69
2023/02/24 12:46:34;;;;;;;;;;;11.60;99.90;;;;;;5013604;28;19920;-69
2023/02/24 12:49:24;;;;;;;;;;;11.50;99.90;;;;;;5010042;28;19940;-69
2023/02/24 12:51:52;;;;;;;;;;;11.60;99.90;;;;;;5006992;28;20304;-69
2023/02/24 12:54:18;;;;;;;;;;;11.50;99.90;;;;;;5021372;28;19940;-69
2023/02/24 12:56:44;;;;;;;;;;;11.60;99.90;;;;;;5007303;28;20291;-68
2023/02/24 12:59:13;;;;;;;;;;;11.50;99.90;;;;;;5009004;28;19921;-69
2023/02/24 13:01:44;;;;;;;;;;;11.50;99.90;;;;;;5007341;28;19917;-69
2023/02/24 13:04:33;;;;;;;;;;;11.60;99.90;;;;;;5006526;28;19913;-69
2023/02/24 13:07:17;;;;;;;;;;;11.60;99.90;;;;;;5010827;28;19971;-69
2023/02/24 13:09:50;;;;;;;;;;;11.60;99.90;;;;;;5010863;28;20003;-71
2023/02/24 13:12:25;;;;;;;;;;;11.50;99.90;;;;;;5009076;28;19914;-70
2023/02/24 13:14:52;;;;;;;;;;;11.50;99.90;;;;;;5011934;28;19956;-69
2023/02/24 13:17:22;;;;;;;;;;;11.50;99.90;;;;;;5007866;28;19957;-70
2023/02/24 13:19:48;;;;;;;;;;;11.60;99.90;;;;;;5013020;28;20624;-69
2023/02/24 13:22:15;;;;;;;;;;;11.60;99.90;;;;;;5011431;28;20271;-70
2023/02/24 13:24:53;;;;;;;;;;;11.60;99.90;;;;;;5014475;28;20547;-70
2023/02/24 13:27:27;;;;;;;;;;;11.60;99.90;;;;;;5012765;28;19913;-69
2023/02/24 13:29:54;;;;;;;;;;;11.60;99.90;;;;;;5011889;28;19979;-69
2023/02/24 13:32:27;;;;;;;;;;;11.60;99.90;;;;;;5008959;28;20047;-69
2023/02/24 13:34:53;;;;;;;;;;;11.60;99.90;;;;;;5010355;28;19968;-69
2023/02/24 13:37:27;;;;;;;;;;;11.60;99.90;;;;;;5007117;28;19967;-69
2023/02/24 13:39:52;;;;;;;;;;;11.60;99.90;;;;;;5010633;28;19929;-69
2023/02/24 13:42:22;;;;;;;;;;;11.60;99.90;;;;;;5010414;28;20291;-69
2023/02/24 13:45:14;;;;;;;;;;;11.70;99.90;;;;;;5013456;28;19914;-70
2023/02/24 13:47:39;;;;;;;;;;;11.60;99.90;;;;;;5007730;28;19909;-68
2023/02/24 13:50:14;;;;;;;;;;;11.50;99.90;;;;;;5010091;28;20007;-69
2023/02/24 13:52:40;;;;;;;;;;;11.50;99.90;;;;;;5012091;28;19936;-70
2023/02/24 13:55:14;;;;;;;;;;;11.50;99.90;;;;;;5012827;28;19913;-70
2023/02/24 13:57:48;;;;;;;;;;;11.50;99.90;;;;;;5006722;28;19936;-69
2023/02/24 14:00:23;;;;;;;;;;;11.60;99.90;;;;;;5013946;28;20001;-69
2023/02/24 14:02:51;;;;;;;;;;;11.60;99.90;;;;;;5013449;28;20000;-69
2023/02/24 14:05:23;;;;;;;;;;;11.70;99.90;;;;;;5013105;28;19996;-69
2023/02/24 14:07:49;;;;;;;;;;;11.70;99.90;;;;;;5011864;28;19914;-69
2023/02/24 14:10:36;;;;;;;;;;;11.60;99.90;;;;;;5013489;28;19910;-69
2023/02/24 14:13:05;;;;;;;;;;;11.70;99.90;;;;;;5013812;28;19910;-69
2023/02/24 14:15:32;;;;;;;;;;;11.70;99.90;;;;;;5011170;28;19909;-69
2023/02/24 14:17:59;;;;;;;;;;;11.60;99.90;;;;;;5012944;28;19929;-69
2023/02/24 14:20:25;;;;;;;;;;;11.70;99.90;;;;;;5011198;28;19913;-69
2023/02/24 14:22:53;;;;;;;;;;;11.80;99.90;;;;;;5009351;28;19917;-69
2023/02/24 14:25:19;;;;;;;;;;;11.70;99.90;;;;;;5006280;28;19914;-69
2023/02/24 14:27:46;;;;;;;;;;;11.80;99.90;;;;;;5011708;28;20393;-69
2023/02/24 14:30:30;;;;;;;;;;;11.90;99.90;;;;;;5010382;28;19999;-69
2023/02/24 14:32:56;;;;;;;;;;;12.00;99.90;;;;;;5011228;28;19914;-69
2023/02/24 14:35:40;;;;;;;;;;;11.90;99.90;;;;;;5012889;28;19917;-69
2023/02/24 14:38:25;;;;;;;;;;;12.00;99.90;;;;;;5011541;28;19914;-69
2023/02/24 14:40:51;;;;;;;;;;;12.00;99.90;;;;;;5011452;28;20063;-69
2023/02/24 14:43:16;;;;;;;;;;;11.90;99.90;;;;;;5011448;28;19948;-70
2023/02/24 14:45:46;;;;;;;;;;;11.90;99.90;;;;;;5011932;28;20413;-69
2023/02/24 14:48:26;;;;;;;;;;;11.90;99.90;;;;;;5012367;28;19925;-69
2023/02/24 14:50:58;;;;;;;;;;;11.90;99.90;;;;;;5008110;28;19964;-68
2023/02/24 14:53:26;;;;;;;;;;;11.90;99.90;;;;;;5010980;28;19914;-70
2023/02/24 14:55:54;;;;;;;;;;;12.00;99.90;;;;;;5011373;28;20328;-69
2023/02/24 14:58:23;;;;;;;;;;;12.10;99.90;;;;;;5012367;28;19964;-69
2023/02/24 15:00:50;;;;;;;;;;;12.30;99.90;;;;;;5009566;28;20304;-69
2023/02/24 15:03:19;;;;;;;;;;;12.40;99.90;;;;;;5006429;28;20330;-69
2023/02/24 15:05:47;;;;;;;;;;;12.40;99.90;;;;;;5011746;28;19945;-69